sensor_id;sensor_type;location;lat;lon;timestamp;P1;durP1;ratioP1;P2;durP2;ratioP2
18340;SDS011;9296;48.084;16.352;2022-12-07T00:00:52;9.98;;;5.78;;
18340;SDS011;9296;48.084;16.352;2022-12-07T00:03:19;11.18;;;6.75;;
18340;SDS011;9296;48.084;16.352;2022-12-07T00:05:47;5.53;;;3.88;;
18340;SDS011;9296;48.084;16.352;2022-12-07T00:08:15;5.45;;;3.83;;
18340;SDS011;9296;48.084;16.352;2022-12-07T00:10:42;6.20;;;3.38;;
18340;SDS011;9296;48.084;16.352;2022-12-07T00:18:59;5.95;;;3.40;;
18340;SDS011;9296;48.084;16.352;2022-12-07T00:21:27;6.07;;;3.67;;
18340;SDS011;9296;48.084;16.352;2022-12-07T00:23:56;5.05;;;3.67;;
18340;SDS011;9296;48.084;16.352;2022-12-07T00:26:24;4.47;;;3.30;;
18340;SDS011;9296;48.084;16.352;2022-12-07T00:31:55;6.10;;;4.38;;
18340;SDS011;9296;48.084;16.352;2022-12-07T00:34:22;8.00;;;5.15;;
18340;SDS011;9296;48.084;16.352;2022-12-07T00:36:50;7.72;;;5.30;;
18340;SDS011;9296;48.084;16.352;2022-12-07T00:39:18;6.90;;;4.80;;
18340;SDS011;9296;48.084;16.352;2022-12-07T00:41:45;7.75;;;5.50;;
18340;SDS011;9296;48.084;16.352;2022-12-07T00:47:16;8.25;;;5.82;;
18340;SDS011;9296;48.084;16.352;2022-12-07T00:49:43;7.15;;;5.50;;
18340;SDS011;9296;48.084;16.352;2022-12-07T00:52:10;7.00;;;5.32;;
18340;SDS011;9296;48.084;16.352;2022-12-07T00:54:39;9.35;;;5.65;;
18340;SDS011;9296;48.084;16.352;2022-12-07T00:57:06;9.10;;;6.15;;
18340;SDS011;9296;48.084;16.352;2022-12-07T01:02:36;8.57;;;6.15;;
18340;SDS011;9296;48.084;16.352;2022-12-07T01:05:04;8.75;;;6.20;;
18340;SDS011;9296;48.084;16.352;2022-12-07T01:07:31;8.52;;;5.80;;
18340;SDS011;9296;48.084;16.352;2022-12-07T01:10:00;8.32;;;6.20;;
18340;SDS011;9296;48.084;16.352;2022-12-07T01:18:35;9.32;;;6.22;;
18340;SDS011;9296;48.084;16.352;2022-12-07T01:21:03;8.18;;;6.05;;
18340;SDS011;9296;48.084;16.352;2022-12-07T01:23:31;8.65;;;5.85;;
18340;SDS011;9296;48.084;16.352;2022-12-07T01:26:00;9.95;;;6.28;;
18340;SDS011;9296;48.084;16.352;2022-12-07T01:28:28;9.48;;;6.40;;
18340;SDS011;9296;48.084;16.352;2022-12-07T01:30:56;8.82;;;6.22;;
18340;SDS011;9296;48.084;16.352;2022-12-07T01:33:23;9.23;;;6.43;;
18340;SDS011;9296;48.084;16.352;2022-12-07T01:35:50;11.35;;;7.57;;
18340;SDS011;9296;48.084;16.352;2022-12-07T01:38:17;7.93;;;5.88;;
18340;SDS011;9296;48.084;16.352;2022-12-07T01:40:45;9.68;;;6.60;;
18340;SDS011;9296;48.084;16.352;2022-12-07T01:43:16;8.77;;;6.30;;
18340;SDS011;9296;48.084;16.352;2022-12-07T01:45:44;8.10;;;6.10;;
18340;SDS011;9296;48.084;16.352;2022-12-07T01:48:12;9.52;;;6.55;;
18340;SDS011;9296;48.084;16.352;2022-12-07T01:50:41;9.18;;;6.70;;
18340;SDS011;9296;48.084;16.352;2022-12-07T01:53:10;10.02;;;6.35;;
18340;SDS011;9296;48.084;16.352;2022-12-07T01:55:38;9.60;;;6.78;;
18340;SDS011;9296;48.084;16.352;2022-12-07T02:01:12;11.45;;;7.30;;
18340;SDS011;9296;48.084;16.352;2022-12-07T02:03:40;10.90;;;7.10;;
18340;SDS011;9296;48.084;16.352;2022-12-07T02:06:08;11.88;;;7.72;;
18340;SDS011;9296;48.084;16.352;2022-12-07T02:08:37;10.02;;;7.13;;
18340;SDS011;9296;48.084;16.352;2022-12-07T02:11:04;12.70;;;7.25;;
18340;SDS011;9296;48.084;16.352;2022-12-07T02:16:23;11.77;;;7.75;;
18340;SDS011;9296;48.084;16.352;2022-12-07T02:18:55;12.20;;;7.80;;
18340;SDS011;9296;48.084;16.352;2022-12-07T02:21:28;12.30;;;7.80;;
18340;SDS011;9296;48.084;16.352;2022-12-07T02:24:19;11.80;;;7.63;;
18340;SDS011;9296;48.084;16.352;2022-12-07T02:26:54;12.63;;;7.85;;
18340;SDS011;9296;48.084;16.352;2022-12-07T02:32:30;12.55;;;8.10;;
18340;SDS011;9296;48.084;16.352;2022-12-07T02:35:03;12.68;;;8.20;;
18340;SDS011;9296;48.084;16.352;2022-12-07T02:37:34;11.70;;;7.65;;
18340;SDS011;9296;48.084;16.352;2022-12-07T02:40:04;11.73;;;7.75;;
18340;SDS011;9296;48.084;16.352;2022-12-07T02:42:42;13.20;;;7.80;;
18340;SDS011;9296;48.084;16.352;2022-12-07T02:45:11;12.48;;;8.35;;
18340;SDS011;9296;48.084;16.352;2022-12-07T02:47:41;12.00;;;7.63;;
18340;SDS011;9296;48.084;16.352;2022-12-07T02:50:10;11.45;;;7.70;;
18340;SDS011;9296;48.084;16.352;2022-12-07T02:52:38;11.70;;;7.30;;
18340;SDS011;9296;48.084;16.352;2022-12-07T02:55:05;12.80;;;7.78;;
18340;SDS011;9296;48.084;16.352;2022-12-07T03:00:38;12.50;;;7.80;;
18340;SDS011;9296;48.084;16.352;2022-12-07T03:03:10;12.85;;;7.90;;
18340;SDS011;9296;48.084;16.352;2022-12-07T03:08:21;11.63;;;7.90;;
18340;SDS011;9296;48.084;16.352;2022-12-07T03:10:52;13.07;;;7.70;;
18340;SDS011;9296;48.084;16.352;2022-12-07T03:13:22;11.25;;;7.22;;
18340;SDS011;9296;48.084;16.352;2022-12-07T03:15:52;11.35;;;7.53;;
18340;SDS011;9296;48.084;16.352;2022-12-07T03:18:22;12.13;;;7.05;;
18340;SDS011;9296;48.084;16.352;2022-12-07T03:20:50;11.52;;;7.40;;
18340;SDS011;9296;48.084;16.352;2022-12-07T03:23:18;11.30;;;7.40;;
18340;SDS011;9296;48.084;16.352;2022-12-07T03:25:47;12.13;;;7.50;;
18340;SDS011;9296;48.084;16.352;2022-12-07T03:31:38;12.88;;;7.10;;
18340;SDS011;9296;48.084;16.352;2022-12-07T03:34:08;11.50;;;7.22;;
18340;SDS011;9296;48.084;16.352;2022-12-07T03:36:39;12.50;;;7.72;;
18340;SDS011;9296;48.084;16.352;2022-12-07T03:39:11;12.70;;;7.50;;
18340;SDS011;9296;48.084;16.352;2022-12-07T03:41:41;10.85;;;6.93;;
18340;SDS011;9296;48.084;16.352;2022-12-07T03:44:08;10.27;;;7.00;;
18340;SDS011;9296;48.084;16.352;2022-12-07T03:46:36;12.70;;;7.13;;
18340;SDS011;9296;48.084;16.352;2022-12-07T03:49:08;9.43;;;6.63;;
18340;SDS011;9296;48.084;16.352;2022-12-07T03:51:38;10.38;;;7.03;;
18340;SDS011;9296;48.084;16.352;2022-12-07T03:54:09;9.98;;;6.45;;
18340;SDS011;9296;48.084;16.352;2022-12-07T03:56:37;11.88;;;7.28;;
18340;SDS011;9296;48.084;16.352;2022-12-07T04:02:11;11.75;;;6.60;;
18340;SDS011;9296;48.084;16.352;2022-12-07T04:04:41;10.90;;;7.13;;
18340;SDS011;9296;48.084;16.352;2022-12-07T04:07:09;10.60;;;6.82;;
18340;SDS011;9296;48.084;16.352;2022-12-07T04:09:37;11.10;;;6.80;;
18340;SDS011;9296;48.084;16.352;2022-12-07T04:12:05;12.95;;;7.47;;
18340;SDS011;9296;48.084;16.352;2022-12-07T04:17:20;11.10;;;6.82;;
18340;SDS011;9296;48.084;16.352;2022-12-07T04:19:48;10.07;;;6.25;;
18340;SDS011;9296;48.084;16.352;2022-12-07T04:22:15;10.30;;;6.30;;
18340;SDS011;9296;48.084;16.352;2022-12-07T04:24:43;11.38;;;6.32;;
18340;SDS011;9296;48.084;16.352;2022-12-07T04:27:10;10.05;;;6.28;;
18340;SDS011;9296;48.084;16.352;2022-12-07T04:32:40;12.10;;;7.07;;
18340;SDS011;9296;48.084;16.352;2022-12-07T04:35:09;11.15;;;6.50;;
18340;SDS011;9296;48.084;16.352;2022-12-07T04:37:37;10.50;;;6.30;;
18340;SDS011;9296;48.084;16.352;2022-12-07T04:40:05;10.43;;;6.63;;
18340;SDS011;9296;48.084;16.352;2022-12-07T04:42:33;11.90;;;6.68;;
18340;SDS011;9296;48.084;16.352;2022-12-07T04:45:19;11.38;;;6.40;;
18340;SDS011;9296;48.084;16.352;2022-12-07T04:47:46;10.63;;;7.00;;
18340;SDS011;9296;48.084;16.352;2022-12-07T04:50:14;11.23;;;6.88;;
18340;SDS011;9296;48.084;16.352;2022-12-07T04:52:42;10.50;;;7.03;;
18340;SDS011;9296;48.084;16.352;2022-12-07T04:55:09;10.35;;;6.75;;
18340;SDS011;9296;48.084;16.352;2022-12-07T04:57:36;12.02;;;6.57;;
18340;SDS011;9296;48.084;16.352;2022-12-07T05:03:07;14.55;;;7.22;;
18340;SDS011;9296;48.084;16.352;2022-12-07T05:05:36;12.05;;;6.93;;
18340;SDS011;9296;48.084;16.352;2022-12-07T05:08:03;14.02;;;7.18;;
18340;SDS011;9296;48.084;16.352;2022-12-07T05:10:30;12.10;;;7.28;;
18340;SDS011;9296;48.084;16.352;2022-12-07T05:19:04;12.25;;;7.32;;
18340;SDS011;9296;48.084;16.352;2022-12-07T05:21:33;13.40;;;7.78;;
18340;SDS011;9296;48.084;16.352;2022-12-07T05:24:00;10.68;;;6.55;;
18340;SDS011;9296;48.084;16.352;2022-12-07T05:26:28;12.73;;;7.95;;
18340;SDS011;9296;48.084;16.352;2022-12-07T05:34:50;13.63;;;7.68;;
18340;SDS011;9296;48.084;16.352;2022-12-07T05:37:21;13.70;;;7.35;;
18340;SDS011;9296;48.084;16.352;2022-12-07T05:39:48;12.45;;;6.88;;
18340;SDS011;9296;48.084;16.352;2022-12-07T05:42:15;15.10;;;8.27;;
18340;SDS011;9296;48.084;16.352;2022-12-07T05:47:46;12.85;;;7.90;;
18340;SDS011;9296;48.084;16.352;2022-12-07T05:50:13;13.80;;;7.65;;
18340;SDS011;9296;48.084;16.352;2022-12-07T05:52:42;13.23;;;7.85;;
18340;SDS011;9296;48.084;16.352;2022-12-07T05:55:09;12.70;;;6.78;;
18340;SDS011;9296;48.084;16.352;2022-12-07T05:57:36;11.95;;;7.13;;
18340;SDS011;9296;48.084;16.352;2022-12-07T06:00:04;11.55;;;7.22;;
18340;SDS011;9296;48.084;16.352;2022-12-07T06:02:30;12.15;;;7.32;;
18340;SDS011;9296;48.084;16.352;2022-12-07T06:04:57;12.02;;;6.93;;
18340;SDS011;9296;48.084;16.352;2022-12-07T06:07:24;12.85;;;7.18;;
18340;SDS011;9296;48.084;16.352;2022-12-07T06:09:53;10.18;;;6.43;;
18340;SDS011;9296;48.084;16.352;2022-12-07T06:12:20;11.07;;;6.90;;
18340;SDS011;9296;48.084;16.352;2022-12-07T06:14:58;10.50;;;6.40;;
18340;SDS011;9296;48.084;16.352;2022-12-07T06:17:26;12.10;;;6.60;;
18340;SDS011;9296;48.084;16.352;2022-12-07T06:19:53;9.88;;;6.35;;
18340;SDS011;9296;48.084;16.352;2022-12-07T06:22:20;10.52;;;6.45;;
18340;SDS011;9296;48.084;16.352;2022-12-07T06:24:47;16.67;;;7.50;;
18340;SDS011;9296;48.084;16.352;2022-12-07T06:27:16;9.13;;;5.88;;
18340;SDS011;9296;48.084;16.352;2022-12-07T06:32:47;9.60;;;5.75;;
18340;SDS011;9296;48.084;16.352;2022-12-07T06:35:14;9.07;;;5.47;;
18340;SDS011;9296;48.084;16.352;2022-12-07T06:37:41;9.30;;;5.88;;
18340;SDS011;9296;48.084;16.352;2022-12-07T06:40:08;9.55;;;5.90;;
18340;SDS011;9296;48.084;16.352;2022-12-07T06:42:37;10.00;;;5.90;;
18340;SDS011;9296;48.084;16.352;2022-12-07T06:45:23;10.50;;;6.53;;
18340;SDS011;9296;48.084;16.352;2022-12-07T06:47:50;9.02;;;5.70;;
18340;SDS011;9296;48.084;16.352;2022-12-07T06:50:17;9.93;;;5.93;;
18340;SDS011;9296;48.084;16.352;2022-12-07T06:52:44;8.45;;;5.82;;
18340;SDS011;9296;48.084;16.352;2022-12-07T06:55:12;12.38;;;6.72;;
18340;SDS011;9296;48.084;16.352;2022-12-07T06:57:43;9.18;;;5.95;;
18340;SDS011;9296;48.084;16.352;2022-12-07T07:00:10;9.10;;;5.63;;
18340;SDS011;9296;48.084;16.352;2022-12-07T07:02:38;16.08;;;6.90;;
18340;SDS011;9296;48.084;16.352;2022-12-07T07:05:05;10.05;;;5.65;;
18340;SDS011;9296;48.084;16.352;2022-12-07T07:07:32;9.73;;;5.45;;
18340;SDS011;9296;48.084;16.352;2022-12-07T07:09:59;8.32;;;5.40;;
18340;SDS011;9296;48.084;16.352;2022-12-07T07:12:27;8.95;;;5.32;;
18340;SDS011;9296;48.084;16.352;2022-12-07T07:17:59;9.10;;;5.63;;
18340;SDS011;9296;48.084;16.352;2022-12-07T07:20:28;8.98;;;5.68;;
18340;SDS011;9296;48.084;16.352;2022-12-07T07:22:55;8.90;;;5.40;;
18340;SDS011;9296;48.084;16.352;2022-12-07T07:25:23;8.32;;;5.47;;
18340;SDS011;9296;48.084;16.352;2022-12-07T07:27:50;8.35;;;5.47;;
18340;SDS011;9296;48.084;16.352;2022-12-07T07:33:22;9.45;;;5.00;;
18340;SDS011;9296;48.084;16.352;2022-12-07T07:35:49;9.27;;;4.88;;
18340;SDS011;9296;48.084;16.352;2022-12-07T07:38:16;9.15;;;5.35;;
18340;SDS011;9296;48.084;16.352;2022-12-07T07:40:43;7.10;;;4.80;;
18340;SDS011;9296;48.084;16.352;2022-12-07T07:43:11;8.10;;;5.00;;
18340;SDS011;9296;48.084;16.352;2022-12-07T07:48:43;8.30;;;5.13;;
18340;SDS011;9296;48.084;16.352;2022-12-07T07:51:10;7.43;;;5.25;;
18340;SDS011;9296;48.084;16.352;2022-12-07T07:53:37;8.32;;;5.53;;
18340;SDS011;9296;48.084;16.352;2022-12-07T07:56:04;7.78;;;5.10;;
18340;SDS011;9296;48.084;16.352;2022-12-07T08:04:40;8.35;;;5.25;;
18340;SDS011;9296;48.084;16.352;2022-12-07T08:07:07;7.88;;;4.53;;
18340;SDS011;9296;48.084;16.352;2022-12-07T08:09:34;6.32;;;4.32;;
18340;SDS011;9296;48.084;16.352;2022-12-07T08:12:02;6.13;;;4.10;;
18340;SDS011;9296;48.084;16.352;2022-12-07T08:17:32;6.03;;;4.10;;
18340;SDS011;9296;48.084;16.352;2022-12-07T08:20:01;6.75;;;4.00;;
18340;SDS011;9296;48.084;16.352;2022-12-07T08:22:28;5.38;;;3.75;;
18340;SDS011;9296;48.084;16.352;2022-12-07T08:24:55;6.35;;;4.43;;
18340;SDS011;9296;48.084;16.352;2022-12-07T08:27:22;5.88;;;3.80;;
18340;SDS011;9296;48.084;16.352;2022-12-07T08:33:01;9.25;;;5.70;;
18340;SDS011;9296;48.084;16.352;2022-12-07T08:35:29;6.60;;;4.30;;
18340;SDS011;9296;48.084;16.352;2022-12-07T08:37:56;4.97;;;3.75;;
18340;SDS011;9296;48.084;16.352;2022-12-07T08:40:24;4.85;;;4.03;;
18340;SDS011;9296;48.084;16.352;2022-12-07T08:42:51;6.88;;;4.03;;
18340;SDS011;9296;48.084;16.352;2022-12-07T08:48:22;5.93;;;3.60;;
18340;SDS011;9296;48.084;16.352;2022-12-07T08:50:51;6.55;;;4.38;;
18340;SDS011;9296;48.084;16.352;2022-12-07T08:53:18;4.13;;;3.22;;
18340;SDS011;9296;48.084;16.352;2022-12-07T08:55:46;4.10;;;3.40;;
18340;SDS011;9296;48.084;16.352;2022-12-07T08:58:13;4.63;;;3.28;;
18340;SDS011;9296;48.084;16.352;2022-12-07T09:03:44;3.92;;;3.33;;
18340;SDS011;9296;48.084;16.352;2022-12-07T09:06:13;5.50;;;4.05;;
18340;SDS011;9296;48.084;16.352;2022-12-07T09:08:41;4.55;;;3.47;;
18340;SDS011;9296;48.084;16.352;2022-12-07T09:11:09;4.28;;;3.72;;
18340;SDS011;9296;48.084;16.352;2022-12-07T09:13:37;5.07;;;3.70;;
18340;SDS011;9296;48.084;16.352;2022-12-07T09:16:22;4.65;;;3.78;;
18340;SDS011;9296;48.084;16.352;2022-12-07T09:18:50;4.95;;;3.90;;
18340;SDS011;9296;48.084;16.352;2022-12-07T09:21:19;5.13;;;3.70;;
18340;SDS011;9296;48.084;16.352;2022-12-07T09:23:46;5.30;;;3.72;;
18340;SDS011;9296;48.084;16.352;2022-12-07T09:26:13;5.15;;;4.03;;
18340;SDS011;9296;48.084;16.352;2022-12-07T09:28:41;4.53;;;3.75;;
18340;SDS011;9296;48.084;16.352;2022-12-07T09:34:11;7.63;;;4.80;;
18340;SDS011;9296;48.084;16.352;2022-12-07T09:36:40;7.72;;;4.88;;
18340;SDS011;9296;48.084;16.352;2022-12-07T09:39:08;5.95;;;3.88;;
18340;SDS011;9296;48.084;16.352;2022-12-07T09:41:36;7.15;;;5.07;;
18340;SDS011;9296;48.084;16.352;2022-12-07T09:44:05;7.18;;;4.45;;
18340;SDS011;9296;48.084;16.352;2022-12-07T09:46:33;5.13;;;4.22;;
18340;SDS011;9296;48.084;16.352;2022-12-07T09:49:02;5.28;;;4.10;;
18340;SDS011;9296;48.084;16.352;2022-12-07T09:51:30;4.75;;;3.78;;
18340;SDS011;9296;48.084;16.352;2022-12-07T09:53:59;5.28;;;4.20;;
18340;SDS011;9296;48.084;16.352;2022-12-07T09:56:28;5.55;;;4.70;;
18340;SDS011;9296;48.084;16.352;2022-12-07T10:05:04;5.20;;;4.35;;
18340;SDS011;9296;48.084;16.352;2022-12-07T10:07:32;5.43;;;4.53;;
18340;SDS011;9296;48.084;16.352;2022-12-07T10:10:03;5.07;;;4.30;;
18340;SDS011;9296;48.084;16.352;2022-12-07T10:12:30;7.30;;;4.28;;
18340;SDS011;9296;48.084;16.352;2022-12-07T10:15:17;5.50;;;3.72;;
18340;SDS011;9296;48.084;16.352;2022-12-07T10:17:47;5.22;;;4.18;;
18340;SDS011;9296;48.084;16.352;2022-12-07T10:20:19;5.15;;;4.07;;
18340;SDS011;9296;48.084;16.352;2022-12-07T10:22:57;13.90;;;4.50;;
18340;SDS011;9296;48.084;16.352;2022-12-07T10:25:27;6.20;;;4.10;;
18340;SDS011;9296;48.084;16.352;2022-12-07T10:28:02;4.32;;;3.53;;
18340;SDS011;9296;48.084;16.352;2022-12-07T10:30:30;4.35;;;3.67;;
18340;SDS011;9296;48.084;16.352;2022-12-07T10:32:58;5.25;;;4.07;;
18340;SDS011;9296;48.084;16.352;2022-12-07T10:35:26;5.63;;;4.43;;
18340;SDS011;9296;48.084;16.352;2022-12-07T10:37:55;5.45;;;3.85;;
18340;SDS011;9296;48.084;16.352;2022-12-07T10:40:25;4.78;;;3.97;;
18340;SDS011;9296;48.084;16.352;2022-12-07T10:43:01;5.38;;;4.28;;
18340;SDS011;9296;48.084;16.352;2022-12-07T10:48:33;5.40;;;3.80;;
18340;SDS011;9296;48.084;16.352;2022-12-07T10:51:04;4.38;;;3.30;;
18340;SDS011;9296;48.084;16.352;2022-12-07T10:53:37;5.10;;;3.83;;
18340;SDS011;9296;48.084;16.352;2022-12-07T10:56:14;8.20;;;3.90;;
18340;SDS011;9296;48.084;16.352;2022-12-07T10:58:52;5.63;;;3.70;;
18340;SDS011;9296;48.084;16.352;2022-12-07T11:41:50;6.88;;;4.38;;
18340;SDS011;9296;48.084;16.352;2022-12-07T11:44:23;5.90;;;3.72;;
18340;SDS011;9296;48.084;16.352;2022-12-07T11:46:54;5.20;;;4.07;;
18340;SDS011;9296;48.084;16.352;2022-12-07T11:49:23;6.97;;;4.50;;
18340;SDS011;9296;48.084;16.352;2022-12-07T11:51:54;5.57;;;3.85;;
18340;SDS011;9296;48.084;16.352;2022-12-07T11:54:25;4.70;;;3.50;;
18340;SDS011;9296;48.084;16.352;2022-12-07T11:56:56;4.45;;;3.50;;
18340;SDS011;9296;48.084;16.352;2022-12-07T11:59:25;5.60;;;4.22;;
18340;SDS011;9296;48.084;16.352;2022-12-07T12:01:56;7.07;;;4.07;;
18340;SDS011;9296;48.084;16.352;2022-12-07T12:04:27;6.25;;;4.20;;
18340;SDS011;9296;48.084;16.352;2022-12-07T12:06:56;5.85;;;4.25;;
18340;SDS011;9296;48.084;16.352;2022-12-07T12:09:25;6.13;;;4.20;;
18340;SDS011;9296;48.084;16.352;2022-12-07T12:21:35;5.53;;;3.90;;
18340;SDS011;9296;48.084;16.352;2022-12-07T12:24:03;5.80;;;4.13;;
18340;SDS011;9296;48.084;16.352;2022-12-07T12:26:33;6.53;;;4.38;;
18340;SDS011;9296;48.084;16.352;2022-12-07T12:29:02;6.35;;;4.30;;
18340;SDS011;9296;48.084;16.352;2022-12-07T12:31:31;5.68;;;4.20;;
18340;SDS011;9296;48.084;16.352;2022-12-07T12:34:01;6.05;;;4.32;;
18340;SDS011;9296;48.084;16.352;2022-12-07T12:36:44;5.70;;;4.10;;
18340;SDS011;9296;48.084;16.352;2022-12-07T12:39:12;4.75;;;3.70;;
18340;SDS011;9296;48.084;16.352;2022-12-07T12:44:40;6.00;;;3.80;;
18340;SDS011;9296;48.084;16.352;2022-12-07T12:55:42;6.18;;;3.92;;
18340;SDS011;9296;48.084;16.352;2022-12-07T12:58:28;5.22;;;3.83;;
18340;SDS011;9296;48.084;16.352;2022-12-07T13:03:53;6.47;;;4.55;;
18340;SDS011;9296;48.084;16.352;2022-12-07T13:06:31;7.07;;;4.25;;
18340;SDS011;9296;48.084;16.352;2022-12-07T13:09:02;5.90;;;4.30;;
18340;SDS011;9296;48.084;16.352;2022-12-07T13:11:32;7.75;;;5.38;;
18340;SDS011;9296;48.084;16.352;2022-12-07T13:16:46;6.28;;;4.50;;
18340;SDS011;9296;48.084;16.352;2022-12-07T13:21:59;7.32;;;4.50;;
18340;SDS011;9296;48.084;16.352;2022-12-07T13:24:26;6.75;;;4.55;;
18340;SDS011;9296;48.084;16.352;2022-12-07T13:26:56;6.60;;;4.70;;
18340;SDS011;9296;48.084;16.352;2022-12-07T13:29:24;6.43;;;4.20;;
18340;SDS011;9296;48.084;16.352;2022-12-07T13:31:52;6.45;;;4.28;;
18340;SDS011;9296;48.084;16.352;2022-12-07T13:34:29;6.53;;;4.15;;
18340;SDS011;9296;48.084;16.352;2022-12-07T13:36:57;86.95;;;9.38;;
18340;SDS011;9296;48.084;16.352;2022-12-07T13:39:25;8.05;;;5.03;;
18340;SDS011;9296;48.084;16.352;2022-12-07T13:41:54;7.00;;;5.00;;
18340;SDS011;9296;48.084;16.352;2022-12-07T13:44:24;7.10;;;5.35;;
18340;SDS011;9296;48.084;16.352;2022-12-07T13:46:53;8.13;;;5.57;;
18340;SDS011;9296;48.084;16.352;2022-12-07T13:49:23;8.25;;;5.70;;
18340;SDS011;9296;48.084;16.352;2022-12-07T13:51:50;9.23;;;5.30;;
18340;SDS011;9296;48.084;16.352;2022-12-07T13:54:18;6.70;;;4.65;;
18340;SDS011;9296;48.084;16.352;2022-12-07T13:56:47;7.07;;;4.80;;
18340;SDS011;9296;48.084;16.352;2022-12-07T13:59:16;6.30;;;4.07;;
18340;SDS011;9296;48.084;16.352;2022-12-07T14:04:49;5.63;;;4.25;;
18340;SDS011;9296;48.084;16.352;2022-12-07T14:07:21;6.32;;;4.60;;
18340;SDS011;9296;48.084;16.352;2022-12-07T14:09:55;6.55;;;4.35;;
18340;SDS011;9296;48.084;16.352;2022-12-07T14:12:23;6.70;;;4.68;;
18340;SDS011;9296;48.084;16.352;2022-12-07T14:21:05;7.93;;;5.05;;
18340;SDS011;9296;48.084;16.352;2022-12-07T14:23:33;7.35;;;5.13;;
18340;SDS011;9296;48.084;16.352;2022-12-07T14:26:05;7.28;;;5.05;;
18340;SDS011;9296;48.084;16.352;2022-12-07T14:28:34;6.80;;;4.72;;
18340;SDS011;9296;48.084;16.352;2022-12-07T14:34:19;7.88;;;4.70;;
18340;SDS011;9296;48.084;16.352;2022-12-07T14:36:48;8.75;;;5.22;;
18340;SDS011;9296;48.084;16.352;2022-12-07T14:39:15;10.05;;;5.43;;
18340;SDS011;9296;48.084;16.352;2022-12-07T14:41:42;9.68;;;5.07;;
18340;SDS011;9296;48.084;16.352;2022-12-07T14:44:16;6.25;;;4.43;;
18340;SDS011;9296;48.084;16.352;2022-12-07T14:49:48;8.73;;;5.18;;
18340;SDS011;9296;48.084;16.352;2022-12-07T14:52:17;7.93;;;5.15;;
18340;SDS011;9296;48.084;16.352;2022-12-07T14:54:45;7.30;;;4.93;;
18340;SDS011;9296;48.084;16.352;2022-12-07T14:57:12;7.30;;;4.75;;
18340;SDS011;9296;48.084;16.352;2022-12-07T14:59:39;10.88;;;6.32;;
18340;SDS011;9296;48.084;16.352;2022-12-07T15:02:08;20.65;;;9.75;;
18340;SDS011;9296;48.084;16.352;2022-12-07T15:04:36;12.25;;;6.85;;
18340;SDS011;9296;48.084;16.352;2022-12-07T15:07:04;22.50;;;8.98;;
18340;SDS011;9296;48.084;16.352;2022-12-07T15:09:33;7.88;;;5.32;;
18340;SDS011;9296;48.084;16.352;2022-12-07T15:12:00;8.07;;;5.47;;
18340;SDS011;9296;48.084;16.352;2022-12-07T15:14:28;7.55;;;5.38;;
18340;SDS011;9296;48.084;16.352;2022-12-07T15:16:55;7.65;;;5.45;;
18340;SDS011;9296;48.084;16.352;2022-12-07T15:19:23;7.85;;;5.53;;
18340;SDS011;9296;48.084;16.352;2022-12-07T15:21:51;8.77;;;5.78;;
18340;SDS011;9296;48.084;16.352;2022-12-07T15:24:19;7.82;;;5.32;;
18340;SDS011;9296;48.084;16.352;2022-12-07T15:26:48;7.43;;;5.25;;
18340;SDS011;9296;48.084;16.352;2022-12-07T15:29:15;9.80;;;6.22;;
18340;SDS011;9296;48.084;16.352;2022-12-07T15:31:42;7.85;;;5.22;;
18340;SDS011;9296;48.084;16.352;2022-12-07T15:34:10;13.25;;;5.57;;
18340;SDS011;9296;48.084;16.352;2022-12-07T15:36:37;10.25;;;6.20;;
18340;SDS011;9296;48.084;16.352;2022-12-07T15:39:04;9.40;;;5.38;;
18340;SDS011;9296;48.084;16.352;2022-12-07T15:41:32;9.02;;;6.18;;
18340;SDS011;9296;48.084;16.352;2022-12-07T15:44:00;11.82;;;6.72;;
18340;SDS011;9296;48.084;16.352;2022-12-07T15:46:44;13.05;;;7.95;;
18340;SDS011;9296;48.084;16.352;2022-12-07T15:49:12;10.45;;;6.50;;
18340;SDS011;9296;48.084;16.352;2022-12-07T15:51:40;9.35;;;6.32;;
18340;SDS011;9296;48.084;16.352;2022-12-07T15:54:08;9.77;;;6.15;;
18340;SDS011;9296;48.084;16.352;2022-12-07T15:56:38;8.70;;;5.88;;
18340;SDS011;9296;48.084;16.352;2022-12-07T15:59:07;9.65;;;6.05;;
18340;SDS011;9296;48.084;16.352;2022-12-07T16:04:37;10.15;;;6.57;;
18340;SDS011;9296;48.084;16.352;2022-12-07T16:07:04;12.18;;;7.43;;
18340;SDS011;9296;48.084;16.352;2022-12-07T16:09:31;11.43;;;6.82;;
18340;SDS011;9296;48.084;16.352;2022-12-07T16:11:58;9.40;;;6.30;;
18340;SDS011;9296;48.084;16.352;2022-12-07T16:14:27;9.32;;;6.18;;
18340;SDS011;9296;48.084;16.352;2022-12-07T16:20:00;11.98;;;7.25;;
18340;SDS011;9296;48.084;16.352;2022-12-07T16:22:27;10.23;;;6.57;;
18340;SDS011;9296;48.084;16.352;2022-12-07T16:24:55;11.35;;;7.30;;
18340;SDS011;9296;48.084;16.352;2022-12-07T16:27:22;8.80;;;5.85;;
18340;SDS011;9296;48.084;16.352;2022-12-07T16:29:50;8.98;;;5.97;;
18340;SDS011;9296;48.084;16.352;2022-12-07T16:32:18;9.73;;;5.90;;
18340;SDS011;9296;48.084;16.352;2022-12-07T16:34:45;11.10;;;6.88;;
18340;SDS011;9296;48.084;16.352;2022-12-07T16:37:13;23.23;;;13.57;;
18340;SDS011;9296;48.084;16.352;2022-12-07T16:39:40;16.98;;;10.73;;
18340;SDS011;9296;48.084;16.352;2022-12-07T16:42:07;10.77;;;7.32;;
18340;SDS011;9296;48.084;16.352;2022-12-07T16:44:34;11.48;;;6.82;;
18340;SDS011;9296;48.084;16.352;2022-12-07T16:50:07;11.00;;;6.32;;
18340;SDS011;9296;48.084;16.352;2022-12-07T16:52:34;8.95;;;5.50;;
18340;SDS011;9296;48.084;16.352;2022-12-07T16:55:02;10.57;;;6.25;;
18340;SDS011;9296;48.084;16.352;2022-12-07T16:57:30;7.70;;;5.57;;
18340;SDS011;9296;48.084;16.352;2022-12-07T16:59:57;9.13;;;6.40;;
18340;SDS011;9296;48.084;16.352;2022-12-07T17:05:12;12.57;;;6.13;;
18340;SDS011;9296;48.084;16.352;2022-12-07T17:07:39;10.05;;;6.72;;
18340;SDS011;9296;48.084;16.352;2022-12-07T17:10:07;9.73;;;6.00;;
18340;SDS011;9296;48.084;16.352;2022-12-07T17:12:36;10.65;;;6.40;;
18340;SDS011;9296;48.084;16.352;2022-12-07T17:15:03;10.98;;;5.97;;
18340;SDS011;9296;48.084;16.352;2022-12-07T17:20:52;12.02;;;6.70;;
18340;SDS011;9296;48.084;16.352;2022-12-07T17:23:19;12.13;;;6.72;;
18340;SDS011;9296;48.084;16.352;2022-12-07T17:25:46;11.30;;;7.03;;
18340;SDS011;9296;48.084;16.352;2022-12-07T17:28:13;12.80;;;6.87;;
18340;SDS011;9296;48.084;16.352;2022-12-07T17:30:59;13.00;;;7.43;;
18340;SDS011;9296;48.084;16.352;2022-12-07T17:33:26;12.67;;;7.57;;
18340;SDS011;9296;48.084;16.352;2022-12-07T17:35:55;11.53;;;6.83;;
18340;SDS011;9296;48.084;16.352;2022-12-07T17:38:22;10.90;;;6.13;;
18340;SDS011;9296;48.084;16.352;2022-12-07T17:40:49;9.68;;;6.38;;
18340;SDS011;9296;48.084;16.352;2022-12-07T17:43:17;12.80;;;7.47;;
18340;SDS011;9296;48.084;16.352;2022-12-07T17:45:44;15.00;;;8.77;;
18340;SDS011;9296;48.084;16.352;2022-12-07T17:48:11;15.05;;;8.60;;
18340;SDS011;9296;48.084;16.352;2022-12-07T17:50:38;14.43;;;7.85;;
18340;SDS011;9296;48.084;16.352;2022-12-07T17:53:24;10.63;;;6.43;;
18340;SDS011;9296;48.084;16.352;2022-12-07T17:55:53;10.93;;;6.75;;
18340;SDS011;9296;48.084;16.352;2022-12-07T17:58:21;11.65;;;6.60;;
18340;SDS011;9296;48.084;16.352;2022-12-07T18:00:48;11.57;;;7.13;;
18340;SDS011;9296;48.084;16.352;2022-12-07T18:03:15;11.45;;;6.75;;
18340;SDS011;9296;48.084;16.352;2022-12-07T18:05:42;11.32;;;7.13;;
18340;SDS011;9296;48.084;16.352;2022-12-07T18:08:11;13.05;;;7.00;;
18340;SDS011;9296;48.084;16.352;2022-12-07T18:10:40;10.75;;;6.63;;
18340;SDS011;9296;48.084;16.352;2022-12-07T18:13:07;12.67;;;6.93;;
18340;SDS011;9296;48.084;16.352;2022-12-07T18:18:57;11.33;;;6.20;;
18340;SDS011;9296;48.084;16.352;2022-12-07T18:21:25;10.53;;;6.83;;
18340;SDS011;9296;48.084;16.352;2022-12-07T18:23:54;9.73;;;6.20;;
18340;SDS011;9296;48.084;16.352;2022-12-07T18:26:24;10.65;;;6.53;;